Terminal Aerodrome Forecast
Issued by NWS Grand Forks, ND

Home | Current Version | Previous Version | Text Only | Print | Product List | Glossary On
Versions: 1 2 3 4 5 6 7 8 9 10 11 12 13 14 15 16 17 18 19 20 21 22 23 24 25 26 27
652
FTUS43 KFGF 250520
TAFGFK
TAF
KGFK 250520Z 2506/2606 35013KT P6SM OVC008
     FM251200 35014KT P6SM OVC008
     FM251700 01017KT P6SM OVC010
     FM260000 02016G24KT P6SM OVC020
     FM260100 02015G23KT P6SM OVC015
     FM260400 02014G22KT P6SM OVC020=

USA.gov is the U.S. government's official web portal to all federal, state and local government web resources and services.